HSV weather

Huntsville International Carl T Jones Field
Huntsville, Alabama, United States

Public forecast

Using degrees Fahrenheit for public forecast. Weather courtesy of forecast.io.

METAR (pilot weather report)

Retrieved 2019/07/18 03:38 UTC (10 minutes ago):

KHSV 180338Z COR 00000KT 10SM FEW010 OVC030 27/26 A3007

TAF (pilot weather forecast)

Forecast is more than 12 hours old.

Retrieved 2019/07/17 00:34 UTC (1 day ago):

TAF KHSV 172332Z 1800/1824 VRB04KT P6SM VCTS SCT040CB BKN250 TEMPO 1800/1801 4SM -TSRA BKN025CB FM180300 VRB03KT P6SM SCT050 BKN250 FM181800 27007KT P6SM SCT035 BKN050